sensor_id;sensor_type;location;lat;lon;timestamp;pressure;altitude;pressure_sealevel;temperature;humidity
16793;BME280;8513;42.662;23.350;2023-02-10T00:01:26;96676.69;;;-2.50;45.12
16793;BME280;8513;42.662;23.350;2023-02-10T00:03:53;96672.28;;;-2.45;45.22
16793;BME280;8513;42.662;23.350;2023-02-10T00:06:20;96674.72;;;-2.37;44.64
16793;BME280;8513;42.662;23.350;2023-02-10T00:08:48;96668.81;;;-2.44;44.88
16793;BME280;8513;42.662;23.350;2023-02-10T00:11:14;96674.88;;;-2.45;45.07
16793;BME280;8513;42.662;23.350;2023-02-10T00:13:41;96667.38;;;-2.56;45.36
16793;BME280;8513;42.662;23.350;2023-02-10T00:16:09;96668.06;;;-2.49;44.81
16793;BME280;8513;42.662;23.350;2023-02-10T00:18:35;96671.53;;;-2.50;45.38
16793;BME280;8513;42.662;23.350;2023-02-10T00:21:14;96673.91;;;-2.41;45.55
16793;BME280;8513;42.662;23.350;2023-02-10T00:23:41;96672.22;;;-2.42;45.56
16793;BME280;8513;42.662;23.350;2023-02-10T00:26:08;96663.22;;;-2.63;45.56
16793;BME280;8513;42.662;23.350;2023-02-10T00:28:34;96665.84;;;-2.64;46.13
16793;BME280;8513;42.662;23.350;2023-02-10T00:31:11;96660.72;;;-2.68;46.35
16793;BME280;8513;42.662;23.350;2023-02-10T00:33:37;96666.84;;;-2.73;46.37
16793;BME280;8513;42.662;23.350;2023-02-10T00:36:07;96664.44;;;-2.81;46.62
16793;BME280;8513;42.662;23.350;2023-02-10T00:38:34;96663.34;;;-2.69;46.23
16793;BME280;8513;42.662;23.350;2023-02-10T00:41:07;96661.19;;;-2.49;46.01
16793;BME280;8513;42.662;23.350;2023-02-10T00:43:33;96650.09;;;-2.51;45.49
16793;BME280;8513;42.662;23.350;2023-02-10T00:45:58;96647.69;;;-2.58;45.94
16793;BME280;8513;42.662;23.350;2023-02-10T00:48:24;96651.13;;;-2.59;45.62
16793;BME280;8513;42.662;23.350;2023-02-10T00:50:50;96646.16;;;-2.69;46.03
16793;BME280;8513;42.662;23.350;2023-02-10T00:53:15;96637.75;;;-2.77;46.24
16793;BME280;8513;42.662;23.350;2023-02-10T00:55:40;96639.66;;;-2.86;46.50
16793;BME280;8513;42.662;23.350;2023-02-10T00:58:06;96649.94;;;-2.85;46.97
16793;BME280;8513;42.662;23.350;2023-02-10T01:00:31;96639.88;;;-2.97;47.09
16793;BME280;8513;42.662;23.350;2023-02-10T01:02:57;96641.69;;;-3.02;47.27
16793;BME280;8513;42.662;23.350;2023-02-10T01:05:22;96641.81;;;-3.08;47.36
16793;BME280;8513;42.662;23.350;2023-02-10T01:07:48;96630.81;;;-3.17;46.96
16793;BME280;8513;42.662;23.350;2023-02-10T01:10:13;96636.88;;;-3.21;47.21
16793;BME280;8513;42.662;23.350;2023-02-10T01:12:39;96634.41;;;-3.25;47.44
16793;BME280;8513;42.662;23.350;2023-02-10T01:15:04;96638.94;;;-3.37;47.53
16793;BME280;8513;42.662;23.350;2023-02-10T01:17:30;96637.38;;;-3.47;48.21
16793;BME280;8513;42.662;23.350;2023-02-10T01:19:56;96635.59;;;-3.43;47.26
16793;BME280;8513;42.662;23.350;2023-02-10T01:22:21;96621.81;;;-3.39;47.55
16793;BME280;8513;42.662;23.350;2023-02-10T01:24:47;96619.00;;;-3.27;47.44
16793;BME280;8513;42.662;23.350;2023-02-10T01:27:12;96615.78;;;-3.38;48.04
16793;BME280;8513;42.662;23.350;2023-02-10T01:29:38;96614.94;;;-3.39;47.83
16793;BME280;8513;42.662;23.350;2023-02-10T01:32:03;96611.41;;;-3.33;47.27
16793;BME280;8513;42.662;23.350;2023-02-10T01:34:29;96604.59;;;-3.36;47.31
16793;BME280;8513;42.662;23.350;2023-02-10T01:36:54;96613.22;;;-3.38;47.68
16793;BME280;8513;42.662;23.350;2023-02-10T01:39:20;96613.72;;;-3.21;47.11
16793;BME280;8513;42.662;23.350;2023-02-10T01:41:45;96613.16;;;-3.35;47.61
16793;BME280;8513;42.662;23.350;2023-02-10T01:46:46;96606.31;;;-3.36;46.76
16793;BME280;8513;42.662;23.350;2023-02-10T01:49:16;96604.25;;;-3.19;46.99
16793;BME280;8513;42.662;23.350;2023-02-10T01:51:54;96595.84;;;-3.27;46.24
16793;BME280;8513;42.662;23.350;2023-02-10T01:54:30;96599.25;;;-3.25;45.27
16793;BME280;8513;42.662;23.350;2023-02-10T01:56:56;96591.38;;;-3.17;45.56
16793;BME280;8513;42.662;23.350;2023-02-10T01:59:26;96593.91;;;-3.16;45.49
16793;BME280;8513;42.662;23.350;2023-02-10T02:01:52;96589.63;;;-3.15;45.31
16793;BME280;8513;42.662;23.350;2023-02-10T02:04:18;96588.72;;;-3.13;45.22
16793;BME280;8513;42.662;23.350;2023-02-10T02:06:44;96583.53;;;-3.09;45.24
16793;BME280;8513;42.662;23.350;2023-02-10T02:09:11;96583.53;;;-3.09;44.99
16793;BME280;8513;42.662;23.350;2023-02-10T02:11:59;96577.84;;;-3.27;45.20
16793;BME280;8513;42.662;23.350;2023-02-10T02:14:57;96576.81;;;-3.18;45.14
16793;BME280;8513;42.662;23.350;2023-02-10T02:17:49;96573.44;;;-3.20;45.25
16793;BME280;8513;42.662;23.350;2023-02-10T02:28:23;96570.81;;;-3.17;44.48
16793;BME280;8513;42.662;23.350;2023-02-10T02:33:49;96570.06;;;-3.24;44.41
16793;BME280;8513;42.662;23.350;2023-02-10T02:36:25;96571.84;;;-3.27;44.78
16793;BME280;8513;42.662;23.350;2023-02-10T02:39:02;96564.84;;;-3.21;44.51
16793;BME280;8513;42.662;23.350;2023-02-10T02:41:30;96564.84;;;-3.19;44.64
16793;BME280;8513;42.662;23.350;2023-02-10T02:43:57;96562.19;;;-3.15;44.50
16793;BME280;8513;42.662;23.350;2023-02-10T02:47:11;96564.91;;;-3.24;44.27
16793;BME280;8513;42.662;23.350;2023-02-10T02:49:47;96563.44;;;-3.34;44.75
16793;BME280;8513;42.662;23.350;2023-02-10T02:52:23;96558.50;;;-3.46;45.16
16793;BME280;8513;42.662;23.350;2023-02-10T02:55:03;96554.84;;;-3.35;45.10
16793;BME280;8513;42.662;23.350;2023-02-10T02:57:50;96571.31;;;-3.45;45.29
16793;BME280;8513;42.662;23.350;2023-02-10T03:00:22;96555.81;;;-3.40;45.14
16793;BME280;8513;42.662;23.350;2023-02-10T03:02:49;96557.81;;;-3.56;45.55
16793;BME280;8513;42.662;23.350;2023-02-10T03:05:23;96569.63;;;-3.46;45.49
16793;BME280;8513;42.662;23.350;2023-02-10T03:07:54;96554.94;;;-3.39;45.88
16793;BME280;8513;42.662;23.350;2023-02-10T03:10:19;96556.75;;;-3.44;46.24
16793;BME280;8513;42.662;23.350;2023-02-10T03:12:46;96556.97;;;-3.57;46.97
16793;BME280;8513;42.662;23.350;2023-02-10T03:15:12;96560.66;;;-3.70;47.57
16793;BME280;8513;42.662;23.350;2023-02-10T03:17:37;96570.25;;;-3.80;48.40
16793;BME280;8513;42.662;23.350;2023-02-10T03:20:03;96561.47;;;-3.68;47.67
16793;BME280;8513;42.662;23.350;2023-02-10T03:22:29;96571.97;;;-3.80;47.73
16793;BME280;8513;42.662;23.350;2023-02-10T03:24:54;96572.91;;;-3.84;47.91
16793;BME280;8513;42.662;23.350;2023-02-10T03:27:20;96567.31;;;-4.06;48.32
16793;BME280;8513;42.662;23.350;2023-02-10T03:29:45;96572.63;;;-4.17;48.83
16793;BME280;8513;42.662;23.350;2023-02-10T03:32:13;96573.34;;;-4.09;48.66
16793;BME280;8513;42.662;23.350;2023-02-10T03:34:39;96573.50;;;-4.19;49.20
16793;BME280;8513;42.662;23.350;2023-02-10T03:37:05;96574.47;;;-4.27;50.00
16793;BME280;8513;42.662;23.350;2023-02-10T03:39:31;96570.97;;;-4.23;50.07
16793;BME280;8513;42.662;23.350;2023-02-10T03:41:56;96566.09;;;-4.38;50.37
16793;BME280;8513;42.662;23.350;2023-02-10T03:44:22;96558.72;;;-4.61;51.00
16793;BME280;8513;42.662;23.350;2023-02-10T03:46:47;96559.19;;;-4.34;50.73
16793;BME280;8513;42.662;23.350;2023-02-10T03:49:13;96554.16;;;-4.40;50.79
16793;BME280;8513;42.662;23.350;2023-02-10T03:51:38;96549.41;;;-4.68;51.44
16793;BME280;8513;42.662;23.350;2023-02-10T03:54:04;96549.22;;;-4.54;51.49
16793;BME280;8513;42.662;23.350;2023-02-10T03:56:29;96549.28;;;-4.59;51.33
16793;BME280;8513;42.662;23.350;2023-02-10T03:58:54;96552.47;;;-4.43;51.33
16793;BME280;8513;42.662;23.350;2023-02-10T04:01:20;96550.91;;;-4.55;51.55
16793;BME280;8513;42.662;23.350;2023-02-10T04:03:45;96548.22;;;-4.46;51.84
16793;BME280;8513;42.662;23.350;2023-02-10T04:06:12;96549.13;;;-4.50;51.55
16793;BME280;8513;42.662;23.350;2023-02-10T04:08:38;96543.84;;;-4.39;51.41
16793;BME280;8513;42.662;23.350;2023-02-10T04:11:04;96548.13;;;-4.39;51.44
16793;BME280;8513;42.662;23.350;2023-02-10T04:13:30;96547.50;;;-4.55;52.07
16793;BME280;8513;42.662;23.350;2023-02-10T04:16:03;96547.38;;;-4.46;51.44
16793;BME280;8513;42.662;23.350;2023-02-10T04:18:29;96554.22;;;-4.45;51.80
16793;BME280;8513;42.662;23.350;2023-02-10T04:20:55;96549.13;;;-4.48;51.74
16793;BME280;8513;42.662;23.350;2023-02-10T04:23:21;96545.78;;;-4.53;51.69
16793;BME280;8513;42.662;23.350;2023-02-10T04:25:47;96552.53;;;-4.48;51.74
16793;BME280;8513;42.662;23.350;2023-02-10T04:28:12;96553.31;;;-4.43;51.29
16793;BME280;8513;42.662;23.350;2023-02-10T04:30:37;96548.25;;;-4.47;51.35
16793;BME280;8513;42.662;23.350;2023-02-10T04:33:03;96542.44;;;-4.60;51.66
16793;BME280;8513;42.662;23.350;2023-02-10T04:35:28;96546.66;;;-4.56;52.08
16793;BME280;8513;42.662;23.350;2023-02-10T04:37:54;96546.63;;;-4.53;51.70
16793;BME280;8513;42.662;23.350;2023-02-10T04:40:21;96544.06;;;-4.53;51.36
16793;BME280;8513;42.662;23.350;2023-02-10T04:42:47;96553.38;;;-4.46;51.58
16793;BME280;8513;42.662;23.350;2023-02-10T04:45:12;96548.97;;;-4.39;51.38
16793;BME280;8513;42.662;23.350;2023-02-10T04:47:38;96555.94;;;-4.47;51.59
16793;BME280;8513;42.662;23.350;2023-02-10T04:50:04;96548.91;;;-4.36;51.22
16793;BME280;8513;42.662;23.350;2023-02-10T04:52:29;96556.00;;;-4.52;51.48
16793;BME280;8513;42.662;23.350;2023-02-10T04:54:55;96556.31;;;-4.70;52.40
16793;BME280;8513;42.662;23.350;2023-02-10T04:57:20;96563.19;;;-4.74;52.53
16793;BME280;8513;42.662;23.350;2023-02-10T04:59:46;96549.56;;;-4.77;52.18
16793;BME280;8513;42.662;23.350;2023-02-10T05:02:11;96562.13;;;-4.59;52.08
16793;BME280;8513;42.662;23.350;2023-02-10T05:04:37;96559.66;;;-4.65;52.48
16793;BME280;8513;42.662;23.350;2023-02-10T05:07:02;96556.16;;;-4.62;52.28
16793;BME280;8513;42.662;23.350;2023-02-10T05:09:28;96559.50;;;-4.54;52.50
16793;BME280;8513;42.662;23.350;2023-02-10T05:11:53;96574.81;;;-4.50;51.98
16793;BME280;8513;42.662;23.350;2023-02-10T05:14:18;96572.50;;;-4.68;52.49
16793;BME280;8513;42.662;23.350;2023-02-10T05:16:44;96572.50;;;-4.68;52.47
16793;BME280;8513;42.662;23.350;2023-02-10T05:19:09;96570.00;;;-4.71;52.40
16793;BME280;8513;42.662;23.350;2023-02-10T05:21:35;96579.41;;;-4.70;52.55
16793;BME280;8513;42.662;23.350;2023-02-10T05:24:01;96583.84;;;-4.84;52.67
16793;BME280;8513;42.662;23.350;2023-02-10T05:26:27;96592.47;;;-4.90;53.21
16793;BME280;8513;42.662;23.350;2023-02-10T05:28:52;96600.31;;;-5.01;53.18
16793;BME280;8513;42.662;23.350;2023-02-10T05:31:18;96591.06;;;-5.13;53.53
16793;BME280;8513;42.662;23.350;2023-02-10T05:33:43;96596.25;;;-5.16;53.89
16793;BME280;8513;42.662;23.350;2023-02-10T05:36:09;96606.53;;;-5.20;53.60
16793;BME280;8513;42.662;23.350;2023-02-10T05:38:34;96604.06;;;-5.26;54.63
16793;BME280;8513;42.662;23.350;2023-02-10T05:41:00;96620.00;;;-5.01;53.23
16793;BME280;8513;42.662;23.350;2023-02-10T05:43:25;96616.53;;;-4.99;53.41
16793;BME280;8513;42.662;23.350;2023-02-10T05:45:51;96619.19;;;-5.05;53.45
16793;BME280;8513;42.662;23.350;2023-02-10T05:48:16;96625.84;;;-4.90;53.12
16793;BME280;8513;42.662;23.350;2023-02-10T05:50:41;96619.03;;;-4.93;52.29
16793;BME280;8513;42.662;23.350;2023-02-10T05:53:07;96622.38;;;-4.88;51.66
16793;BME280;8513;42.662;23.350;2023-02-10T05:55:33;96613.75;;;-4.80;51.62
16793;BME280;8513;42.662;23.350;2023-02-10T05:57:58;96626.44;;;-4.71;50.94
16793;BME280;8513;42.662;23.350;2023-02-10T06:00:24;96628.13;;;-4.67;51.13
16793;BME280;8513;42.662;23.350;2023-02-10T06:02:49;96627.25;;;-4.66;50.56
16793;BME280;8513;42.662;23.350;2023-02-10T06:05:15;96627.25;;;-4.66;50.70
16793;BME280;8513;42.662;23.350;2023-02-10T06:07:40;96634.00;;;-4.59;50.16
16793;BME280;8513;42.662;23.350;2023-02-10T06:10:06;96626.41;;;-4.67;50.37
16793;BME280;8513;42.662;23.350;2023-02-10T06:12:32;96637.69;;;-4.78;50.48
16793;BME280;8513;42.662;23.350;2023-02-10T06:14:57;96640.94;;;-4.67;50.17
16793;BME280;8513;42.662;23.350;2023-02-10T06:17:23;96645.16;;;-4.61;50.06
16793;BME280;8513;42.662;23.350;2023-02-10T06:19:48;96643.38;;;-4.56;50.02
16793;BME280;8513;42.662;23.350;2023-02-10T06:22:13;96643.44;;;-4.62;50.28
16793;BME280;8513;42.662;23.350;2023-02-10T06:24:39;96639.38;;;-4.77;50.46
16793;BME280;8513;42.662;23.350;2023-02-10T06:27:06;96653.03;;;-4.75;50.56
16793;BME280;8513;42.662;23.350;2023-02-10T06:29:32;96652.75;;;-4.54;50.26
16793;BME280;8513;42.662;23.350;2023-02-10T06:31:57;96654.34;;;-4.45;49.75
16793;BME280;8513;42.662;23.350;2023-02-10T06:34:23;96660.00;;;-4.22;49.16
16793;BME280;8513;42.662;23.350;2023-02-10T06:36:48;96653.03;;;-4.15;49.05
16793;BME280;8513;42.662;23.350;2023-02-10T06:39:14;96647.78;;;-4.07;48.82
16793;BME280;8513;42.662;23.350;2023-02-10T06:41:39;96657.16;;;-4.62;50.28
16793;BME280;8513;42.662;23.350;2023-02-10T06:44:05;96660.28;;;-4.41;50.53
16793;BME280;8513;42.662;23.350;2023-02-10T06:46:30;96657.50;;;-4.26;49.81
16793;BME280;8513;42.662;23.350;2023-02-10T06:48:56;96659.84;;;-4.11;49.62
16793;BME280;8513;42.662;23.350;2023-02-10T06:51:21;96655.16;;;-3.84;49.46
16793;BME280;8513;42.662;23.350;2023-02-10T06:53:47;96664.50;;;-3.80;49.26
16793;BME280;8513;42.662;23.350;2023-02-10T06:56:13;96667.50;;;-4.08;49.09
16793;BME280;8513;42.662;23.350;2023-02-10T06:58:38;96668.22;;;-4.00;49.08
16793;BME280;8513;42.662;23.350;2023-02-10T07:01:08;96670.06;;;-4.08;49.90
16793;BME280;8513;42.662;23.350;2023-02-10T07:03:34;96674.31;;;-4.07;50.05
16793;BME280;8513;42.662;23.350;2023-02-10T07:05:59;96673.19;;;-3.87;49.43
16793;BME280;8513;42.662;23.350;2023-02-10T07:08:25;96666.84;;;-3.66;49.27
16793;BME280;8513;42.662;23.350;2023-02-10T07:10:50;96670.88;;;-3.50;48.71
16793;BME280;8513;42.662;23.350;2023-02-10T07:13:16;96669.66;;;-3.30;48.11
16793;BME280;8513;42.662;23.350;2023-02-10T07:15:41;96652.78;;;-3.45;48.25
16793;BME280;8513;42.662;23.350;2023-02-10T07:18:07;96650.13;;;-3.39;48.29
16793;BME280;8513;42.662;23.350;2023-02-10T07:20:32;96662.81;;;-3.32;48.26
16793;BME280;8513;42.662;23.350;2023-02-10T07:22:58;96656.22;;;-3.46;48.38
16793;BME280;8513;42.662;23.350;2023-02-10T07:25:23;96661.13;;;-3.31;48.39
16793;BME280;8513;42.662;23.350;2023-02-10T07:27:49;96656.63;;;-3.20;48.23
16793;BME280;8513;42.662;23.350;2023-02-10T07:30:14;96653.97;;;-3.15;47.35
16793;BME280;8513;42.662;23.350;2023-02-10T07:32:39;96650.69;;;-3.25;47.48
16793;BME280;8513;42.662;23.350;2023-02-10T07:35:07;96644.59;;;-3.21;47.62
16793;BME280;8513;42.662;23.350;2023-02-10T07:37:32;96644.44;;;-3.10;47.51
16793;BME280;8513;42.662;23.350;2023-02-10T07:39:58;96652.47;;;-2.83;47.16
16793;BME280;8513;42.662;23.350;2023-02-10T07:42:23;96641.09;;;-3.15;47.52
16793;BME280;8513;42.662;23.350;2023-02-10T07:44:48;96646.34;;;-3.21;47.93
16793;BME280;8513;42.662;23.350;2023-02-10T07:47:14;96646.34;;;-3.21;48.40
16793;BME280;8513;42.662;23.350;2023-02-10T07:49:39;96650.28;;;-3.03;47.53
16793;BME280;8513;42.662;23.350;2023-02-10T07:52:05;96642.91;;;-3.22;47.88
16793;BME280;8513;42.662;23.350;2023-02-10T07:54:30;96652.28;;;-2.74;47.05
16793;BME280;8513;42.662;23.350;2023-02-10T07:56:56;96653.13;;;-2.72;46.64
16793;BME280;8513;42.662;23.350;2023-02-10T07:59:21;96651.19;;;-3.04;47.01
16793;BME280;8513;42.662;23.350;2023-02-10T08:01:47;96655.22;;;-2.91;47.24
16793;BME280;8513;42.662;23.350;2023-02-10T08:04:13;96659.31;;;-2.82;46.84
16793;BME280;8513;42.662;23.350;2023-02-10T08:06:38;96655.50;;;-2.63;46.32
16793;BME280;8513;42.662;23.350;2023-02-10T08:09:04;96653.44;;;-2.47;46.03
16793;BME280;8513;42.662;23.350;2023-02-10T08:11:30;96661.03;;;-2.41;45.97
16793;BME280;8513;42.662;23.350;2023-02-10T08:13:56;96656.09;;;-2.50;45.58
16793;BME280;8513;42.662;23.350;2023-02-10T08:16:22;96658.34;;;-2.35;45.59
16793;BME280;8513;42.662;23.350;2023-02-10T08:18:47;96650.56;;;-2.33;45.23
16793;BME280;8513;42.662;23.350;2023-02-10T08:21:13;96653.69;;;-2.19;44.47
16793;BME280;8513;42.662;23.350;2023-02-10T08:23:38;96647.25;;;-2.01;44.49
16793;BME280;8513;42.662;23.350;2023-02-10T08:26:09;96649.88;;;-2.03;44.70
16793;BME280;8513;42.662;23.350;2023-02-10T08:28:36;96651.41;;;-1.94;44.12
16793;BME280;8513;42.662;23.350;2023-02-10T08:31:04;96653.69;;;-1.82;44.16
16793;BME280;8513;42.662;23.350;2023-02-10T08:33:30;96658.94;;;-1.86;43.62
16793;BME280;8513;42.662;23.350;2023-02-10T08:35:56;96652.97;;;-1.87;43.66
16793;BME280;8513;42.662;23.350;2023-02-10T08:38:22;96650.97;;;-1.75;44.11
16793;BME280;8513;42.662;23.350;2023-02-10T08:40:57;96652.56;;;-1.71;43.28
16793;BME280;8513;42.662;23.350;2023-02-10T08:43:22;96638.72;;;-1.67;42.70
16793;BME280;8513;42.662;23.350;2023-02-10T08:45:48;96641.22;;;-1.64;42.62
16793;BME280;8513;42.662;23.350;2023-02-10T08:48:14;96638.56;;;-1.61;42.95
16793;BME280;8513;42.662;23.350;2023-02-10T08:50:39;96637.19;;;-1.42;43.22
16793;BME280;8513;42.662;23.350;2023-02-10T08:53:05;96639.88;;;-1.45;42.51
16793;BME280;8513;42.662;23.350;2023-02-10T08:55:30;96648.06;;;-1.63;44.24
16793;BME280;8513;42.662;23.350;2023-02-10T08:57:56;96643.53;;;-1.53;43.52
16793;BME280;8513;42.662;23.350;2023-02-10T09:00:21;96627.94;;;-1.49;44.01
16793;BME280;8513;42.662;23.350;2023-02-10T09:02:49;96631.91;;;-1.36;42.55
16793;BME280;8513;42.662;23.350;2023-02-10T09:05:16;96633.75;;;-1.75;43.48
16793;BME280;8513;42.662;23.350;2023-02-10T09:07:44;96624.34;;;-1.76;43.55
16793;BME280;8513;42.662;23.350;2023-02-10T09:10:10;96627.97;;;-1.18;42.88
16793;BME280;8513;42.662;23.350;2023-02-10T09:12:36;96623.09;;;-1.61;43.26
16793;BME280;8513;42.662;23.350;2023-02-10T09:15:01;96629.03;;;-1.58;43.42
16793;BME280;8513;42.662;23.350;2023-02-10T09:17:27;96624.38;;;-1.45;43.49
16793;BME280;8513;42.662;23.350;2023-02-10T09:19:52;96612.47;;;-1.18;43.78
16793;BME280;8513;42.662;23.350;2023-02-10T09:22:18;96618.84;;;-0.98;42.27
16793;BME280;8513;42.662;23.350;2023-02-10T09:24:43;96619.91;;;-0.74;42.75
16793;BME280;8513;42.662;23.350;2023-02-10T09:27:12;96609.50;;;-0.73;41.81
16793;BME280;8513;42.662;23.350;2023-02-10T09:29:38;96620.00;;;-0.48;42.26
16793;BME280;8513;42.662;23.350;2023-02-10T09:32:04;96617.63;;;-0.27;41.75
16793;BME280;8513;42.662;23.350;2023-02-10T09:34:29;96617.19;;;-0.12;41.56
16793;BME280;8513;42.662;23.350;2023-02-10T09:36:55;96610.81;;;-0.02;40.54
16793;BME280;8513;42.662;23.350;2023-02-10T09:39:22;96601.09;;;0.07;41.11
16793;BME280;8513;42.662;23.350;2023-02-10T09:44:38;96596.53;;;0.13;40.04
16793;BME280;8513;42.662;23.350;2023-02-10T09:47:35;96595.66;;;0.14;39.67
16793;BME280;8513;42.662;23.350;2023-02-10T09:55:20;96585.09;;;0.47;39.56
16793;BME280;8513;42.662;23.350;2023-02-10T09:57:55;96578.44;;;0.65;40.03
16793;BME280;8513;42.662;23.350;2023-02-10T10:00:30;96585.88;;;0.74;38.58
16793;BME280;8513;42.662;23.350;2023-02-10T10:02:57;96583.81;;;0.84;38.29
16793;BME280;8513;42.662;23.350;2023-02-10T10:07:55;96567.03;;;0.71;37.62
16793;BME280;8513;42.662;23.350;2023-02-10T10:10:29;96564.16;;;0.53;38.14
16793;BME280;8513;42.662;23.350;2023-02-10T10:12:56;96568.41;;;0.81;37.86
16793;BME280;8513;42.662;23.350;2023-02-10T10:15:23;96566.41;;;0.87;37.88
16793;BME280;8513;42.662;23.350;2023-02-10T10:18:14;96562.31;;;0.82;37.75
16793;BME280;8513;42.662;23.350;2023-02-10T10:21:08;96547.19;;;0.95;37.87
16793;BME280;8513;42.662;23.350;2023-02-10T10:23:59;96557.66;;;1.15;37.66
16793;BME280;8513;42.662;23.350;2023-02-10T10:31:53;96541.72;;;1.26;37.96
16793;BME280;8513;42.662;23.350;2023-02-10T10:34:25;96542.88;;;1.41;37.97
16793;BME280;8513;42.662;23.350;2023-02-10T10:36:56;96534.00;;;1.68;37.28
16793;BME280;8513;42.662;23.350;2023-02-10T10:42:01;96533.38;;;1.63;36.97
16793;BME280;8513;42.662;23.350;2023-02-10T10:44:29;96521.53;;;1.78;36.70
16793;BME280;8513;42.662;23.350;2023-02-10T10:47:05;96514.94;;;1.91;36.37
16793;BME280;8513;42.662;23.350;2023-02-10T10:49:36;96516.19;;;2.03;35.78
16793;BME280;8513;42.662;23.350;2023-02-10T10:52:05;96517.06;;;2.04;35.83
16793;BME280;8513;42.662;23.350;2023-02-10T10:54:39;96513.94;;;2.16;35.81
16793;BME280;8513;42.662;23.350;2023-02-10T10:57:05;96520.38;;;2.28;35.54
16793;BME280;8513;42.662;23.350;2023-02-10T10:59:39;96513.69;;;2.42;35.36
16793;BME280;8513;42.662;23.350;2023-02-10T11:02:16;96506.53;;;2.48;34.92
16793;BME280;8513;42.662;23.350;2023-02-10T11:04:42;96491.84;;;2.67;35.37
16793;BME280;8513;42.662;23.350;2023-02-10T11:07:22;96502.47;;;2.42;35.05
16793;BME280;8513;42.662;23.350;2023-02-10T11:09:52;96506.16;;;2.36;35.18
16793;BME280;8513;42.662;23.350;2023-02-10T11:12:37;96497.44;;;2.37;34.47
16793;BME280;8513;42.662;23.350;2023-02-10T11:17:50;96493.88;;;2.40;34.93
16793;BME280;8513;42.662;23.350;2023-02-10T11:20:29;96492.13;;;2.40;34.59
16793;BME280;8513;42.662;23.350;2023-02-10T11:22:58;96484.53;;;2.56;34.32
16793;BME280;8513;42.662;23.350;2023-02-10T11:25:31;96484.25;;;1.81;36.22
16793;BME280;8513;42.662;23.350;2023-02-10T11:27:58;96477.41;;;1.80;35.51
16793;BME280;8513;42.662;23.350;2023-02-10T11:32:57;96473.16;;;2.59;34.87
16793;BME280;8513;42.662;23.350;2023-02-10T11:35:24;96468.88;;;2.97;33.95
16793;BME280;8513;42.662;23.350;2023-02-10T11:37:55;96468.50;;;3.24;34.08
16793;BME280;8513;42.662;23.350;2023-02-10T11:40:25;96463.13;;;3.46;33.37
16793;BME280;8513;42.662;23.350;2023-02-10T11:42:56;96464.28;;;3.58;33.75
16793;BME280;8513;42.662;23.350;2023-02-10T11:45:28;96457.06;;;3.82;32.58
16793;BME280;8513;42.662;23.350;2023-02-10T11:48:26;96457.13;;;3.63;32.68
16793;BME280;8513;42.662;23.350;2023-02-10T11:51:15;96459.84;;;3.96;32.18
16793;BME280;8513;42.662;23.350;2023-02-10T11:53:43;96463.13;;;4.17;32.10
16793;BME280;8513;42.662;23.350;2023-02-10T12:01:53;96447.50;;;4.17;31.47
16793;BME280;8513;42.662;23.350;2023-02-10T12:04:36;96438.84;;;4.34;32.25
16793;BME280;8513;42.662;23.350;2023-02-10T12:12:40;96440.84;;;4.95;30.36
16793;BME280;8513;42.662;23.350;2023-02-10T12:29:26;96409.16;;;10.86;21.80
16793;BME280;8513;42.662;23.350;2023-02-10T12:37:37;96402.91;;;14.11;18.36
16793;BME280;8513;42.662;23.350;2023-02-10T12:42:59;96398.22;;;15.74;16.62
16793;BME280;8513;42.662;23.350;2023-02-10T12:45:48;96391.19;;;16.80;14.92
16793;BME280;8513;42.662;23.350;2023-02-10T12:48:31;96386.59;;;16.46;15.37
16793;BME280;8513;42.662;23.350;2023-02-10T12:53:44;96388.59;;;17.23;14.64
16793;BME280;8513;42.662;23.350;2023-02-10T12:56:23;96385.19;;;17.97;14.55
16793;BME280;8513;42.662;23.350;2023-02-10T12:59:11;96385.19;;;18.30;13.76
16793;BME280;8513;42.662;23.350;2023-02-10T13:02:08;96387.81;;;19.04;12.94
16793;BME280;8513;42.662;23.350;2023-02-10T13:04:41;96390.97;;;17.93;13.85
16793;BME280;8513;42.662;23.350;2023-02-10T13:12:42;96391.88;;;16.64;14.20
16793;BME280;8513;42.662;23.350;2023-02-10T13:17:46;96388.25;;;16.65;14.88
16793;BME280;8513;42.662;23.350;2023-02-10T13:34:21;96382.81;;;20.11;11.76
16793;BME280;8513;42.662;23.350;2023-02-10T13:37:05;96378.47;;;20.33;12.07
16793;BME280;8513;42.662;23.350;2023-02-10T13:39:32;96387.09;;;19.89;11.67
16793;BME280;8513;42.662;23.350;2023-02-10T13:42:16;96381.13;;;21.23;11.16
16793;BME280;8513;42.662;23.350;2023-02-10T13:44:43;96382.72;;;20.42;11.33
16793;BME280;8513;42.662;23.350;2023-02-10T13:49:57;96376.16;;;21.05;10.88
16793;BME280;8513;42.662;23.350;2023-02-10T13:52:27;96374.09;;;21.37;10.96
16793;BME280;8513;42.662;23.350;2023-02-10T13:57:59;96374.09;;;20.17;11.41
16793;BME280;8513;42.662;23.350;2023-02-10T14:00:51;96378.50;;;18.91;12.30
16793;BME280;8513;42.662;23.350;2023-02-10T14:03:22;96385.38;;;16.59;14.05
16793;BME280;8513;42.662;23.350;2023-02-10T14:06:05;96381.53;;;14.71;15.68
16793;BME280;8513;42.662;23.350;2023-02-10T14:11:26;96387.19;;;11.85;18.38
16793;BME280;8513;42.662;23.350;2023-02-10T14:14:03;96386.31;;;10.97;19.52
16793;BME280;8513;42.662;23.350;2023-02-10T14:19:05;96385.53;;;9.20;22.06
16793;BME280;8513;42.662;23.350;2023-02-10T14:21:40;96395.44;;;9.04;22.19
16793;BME280;8513;42.662;23.350;2023-02-10T14:24:12;96392.78;;;8.67;22.65
16793;BME280;8513;42.662;23.350;2023-02-10T14:26:42;96394.94;;;8.22;23.50
16793;BME280;8513;42.662;23.350;2023-02-10T14:29:18;96386.97;;;8.36;23.45
16793;BME280;8513;42.662;23.350;2023-02-10T14:31:46;96383.00;;;8.18;23.54
16793;BME280;8513;42.662;23.350;2023-02-10T14:36:57;96375.13;;;8.05;24.86
16793;BME280;8513;42.662;23.350;2023-02-10T14:39:24;96379.81;;;8.00;24.98
16793;BME280;8513;42.662;23.350;2023-02-10T14:41:51;96372.03;;;7.73;24.54
16793;BME280;8513;42.662;23.350;2023-02-10T14:44:45;96368.78;;;7.82;24.92
16793;BME280;8513;42.662;23.350;2023-02-10T14:47:17;96379.66;;;7.76;25.03
16793;BME280;8513;42.662;23.350;2023-02-10T14:49:43;96365.84;;;7.74;25.39
16793;BME280;8513;42.662;23.350;2023-02-10T14:52:36;96369.59;;;7.16;25.78
16793;BME280;8513;42.662;23.350;2023-02-10T14:55:36;96377.16;;;8.53;24.24
16793;BME280;8513;42.662;23.350;2023-02-10T14:58:10;96374.84;;;9.11;24.16
16793;BME280;8513;42.662;23.350;2023-02-10T15:00:37;96372.75;;;11.24;21.67
16793;BME280;8513;42.662;23.350;2023-02-10T15:03:04;96378.69;;;12.34;19.89